Time;durP1;ratioP1;P1;durP2;ratioP2;P2;SDS_P1;SDS_P2;PMS_P1;PMS_P2;Temp;Humidity;BMP_temperature;BMP_pressure;BME280_temperature;BME280_humidity;BME280_pressure;Samples;Min_cycle;Max_cycle;Signal;HPM_P1;HPM_P2
2023/07/22 00:02:49;;;;;;;;;;;;;;;25.94;39.27;100411.95;2361418;74;51486;-74
2023/07/22 00:05:52;;;;;;;;;;;;;;;25.92;39.27;100405.44;2389154;74;52551;-74
2023/07/22 00:08:53;;;;;;;;;;;;;;;25.93;39.27;100408.97;2392067;74;51556;-75
2023/07/22 00:11:55;;;;;;;;;;;;;;;25.91;39.27;100409.19;2394936;74;51509;-75
2023/07/22 00:14:56;;;;;;;;;;;;;;;25.92;39.25;100410.86;2361398;74;50611;-75
2023/07/22 00:17:58;;;;;;;;;;;;;;;25.92;39.25;100404.59;2361290;74;51511;-75
2023/07/22 00:21:00;;;;;;;;;;;;;;;25.92;39.25;100404.59;2354458;74;51570;-74
2023/07/22 00:24:01;;;;;;;;;;;;;;;25.92;39.24;100400.52;2395066;74;50289;-74
2023/07/22 00:27:03;;;;;;;;;;;;;;;25.92;39.24;100407.30;2394723;73;50345;-76
2023/07/22 00:30:06;;;;;;;;;;;;;;;25.91;39.24;100411.91;2361460;74;51520;-75
2023/07/22 00:33:08;;;;;;;;;;;;;;;25.90;39.28;100408.09;2393971;74;51341;-76
2023/07/22 00:36:10;;;;;;;;;;;;;;;25.90;39.27;100408.91;2394905;74;50308;-75
2023/07/22 00:39:14;;;;;;;;;;;;;;;25.89;39.24;100407.24;2394873;74;50378;-74
2023/07/22 00:42:16;;;;;;;;;;;;;;;25.90;39.27;100408.09;2335463;74;50998;-75
2023/07/22 00:45:18;;;;;;;;;;;;;;;25.89;39.25;100399.11;2361295;74;51522;-74
2023/07/22 00:48:19;;;;;;;;;;;;;;;25.88;39.29;100400.72;2361266;73;51549;-74
2023/07/22 00:51:22;;;;;;;;;;;;;;;25.88;39.29;100403.44;2396569;73;51511;-75
2023/07/22 00:54:24;;;;;;;;;;;;;;;25.87;39.30;100403.12;2397448;74;50676;-75
2023/07/22 00:57:25;;;;;;;;;;;;;;;25.88;39.26;100407.50;2397069;73;50476;-75
2023/07/22 01:00:27;;;;;;;;;;;;;;;25.89;39.25;100410.48;2396053;73;50453;-75
2023/07/22 01:03:28;;;;;;;;;;;;;;;25.88;39.25;100410.20;2397425;73;50614;-75
2023/07/22 01:06:30;;;;;;;;;;;;;;;25.87;39.27;100414.81;2362126;74;52477;-75
2023/07/22 01:09:33;;;;;;;;;;;;;;;25.86;39.24;100413.14;2363832;74;52399;-74
2023/07/22 01:12:35;;;;;;;;;;;;;;;25.87;39.28;100416.67;2361921;73;51578;-74
2023/07/22 01:15:37;;;;;;;;;;;;;;;25.87;39.27;100419.38;2397552;73;51461;-75
2023/07/22 01:18:39;;;;;;;;;;;;;;;25.86;39.27;100413.14;2352346;74;51749;-75
2023/07/22 01:21:40;;;;;;;;;;;;;;;25.86;39.27;100405.02;2394218;73;50188;-75
2023/07/22 01:24:42;;;;;;;;;;;;;;;25.87;39.28;100405.83;2394987;74;50671;-75
2023/07/22 01:27:44;;;;;;;;;;;;;;;25.85;39.28;100401.48;2394713;73;50654;-75
2023/07/22 01:30:45;;;;;;;;;;;;;;;25.83;39.28;100402.22;2388997;74;51317;-75
2023/07/22 01:33:47;;;;;;;;;;;;;;;25.83;39.29;100407.63;2361338;74;50669;-75
2023/07/22 01:36:49;;;;;;;;;;;;;;;25.83;39.30;100416.30;2361149;74;51466;-75
2023/07/22 01:39:50;;;;;;;;;;;;;;;25.83;39.28;100416.30;2394886;74;50338;-76
2023/07/22 01:42:52;;;;;;;;;;;;;;;25.83;39.29;100418.48;2394873;74;50654;-75
2023/07/22 01:45:54;;;;;;;;;;;;;;;25.82;39.29;100407.36;2361441;74;51602;-75
2023/07/22 01:48:58;;;;;;;;;;;;;;;25.82;39.27;100401.11;2361822;74;50290;-75
2023/07/22 01:52:00;;;;;;;;;;;;;;;25.80;39.30;100399.98;2395749;74;51529;-75
2023/07/22 01:55:05;;;;;;;;;;;;;;;25.82;39.28;100409.25;2334927;74;52644;-74
2023/07/22 01:58:05;;;;;;;;;;;;;;;25.81;39.28;100404.87;2394902;74;22369;-74
2023/07/22 02:01:07;;;;;;;;;;;;;;;25.82;39.27;100411.95;2361351;74;50772;-74
2023/07/22 02:04:10;;;;;;;;;;;;;;;25.81;39.28;100423.84;2361477;74;50053;-74
2023/07/22 02:07:12;;;;;;;;;;;;;;;25.81;39.29;100431.44;2335053;74;52722;-74
2023/07/22 02:10:13;;;;;;;;;;;;;;;25.80;39.28;100436.58;2361740;74;51479;-75
2023/07/22 02:13:15;;;;;;;;;;;;;;;25.80;39.28;100429.80;2394768;74;51340;-75
2023/07/22 02:16:18;;;;;;;;;;;;;;;25.78;39.29;100430.56;2361293;74;51486;-75
2023/07/22 02:19:20;;;;;;;;;;;;;;;25.80;39.28;100439.28;2334773;74;49684;-75
2023/07/22 02:22:21;;;;;;;;;;;;;;;25.81;39.29;100440.10;2362238;74;50744;-75
2023/07/22 02:25:23;;;;;;;;;;;;;;;25.80;39.29;100444.70;2361387;74;51506;-75
2023/07/22 02:28:25;;;;;;;;;;;;;;;25.79;39.28;100444.42;2361025;74;51532;-75
2023/07/22 02:31:26;;;;;;;;;;;;;;;25.79;39.28;100452.55;2388895;74;51760;-75
2023/07/22 02:34:28;;;;;;;;;;;;;;;25.78;39.29;100452.78;2361308;74;51510;-74
2023/07/22 02:37:30;;;;;;;;;;;;;;;25.78;39.29;100452.24;2394698;74;51541;-74
2023/07/22 02:40:33;;;;;;;;;;;;;;;25.78;39.29;100456.30;2394843;74;50740;-74
2023/07/22 02:43:35;;;;;;;;;;;;;;;25.78;39.31;100464.97;2361286;74;52627;-74
2023/07/22 02:46:36;;;;;;;;;;;;;;;25.77;39.30;100466.86;2361061;74;52521;-74
2023/07/22 02:49:38;;;;;;;;;;;;;;;25.77;39.32;100461.45;2395618;74;50327;-75
2023/07/22 02:52:41;;;;;;;;;;;;;;;25.76;39.32;100465.20;2362026;74;50005;-75
2023/07/22 02:55:42;;;;;;;;;;;;;;;25.76;39.33;100472.51;2394792;74;51572;-75
2023/07/22 02:58:44;;;;;;;;;;;;;;;25.75;39.33;100474.40;2360948;74;51530;-75
2023/07/22 03:01:46;;;;;;;;;;;;;;;25.75;39.37;100483.89;2361467;74;50329;-76
2023/07/22 03:04:47;;;;;;;;;;;;;;;25.74;39.35;100489.03;2394913;74;50767;-75
2023/07/22 03:07:49;;;;;;;;;;;;;;;25.76;39.30;100482.00;2334505;74;52888;-75
2023/07/22 03:10:51;;;;;;;;;;;;;;;25.73;39.34;100488.71;2361393;74;50348;-75
2023/07/22 03:13:53;;;;;;;;;;;;;;;25.74;39.34;100488.17;2361189;74;49516;-76
2023/07/22 03:16:55;;;;;;;;;;;;;;;25.73;39.32;100478.41;2361164;74;51588;-74
2023/07/22 03:19:57;;;;;;;;;;;;;;;25.73;39.34;100487.89;2376752;74;52646;-75
2023/07/22 03:22:59;;;;;;;;;;;;;;;25.72;39.36;100489.78;2362091;74;51584;-75
2023/07/22 03:26:00;;;;;;;;;;;;;;;25.72;39.35;100494.38;2394676;74;50696;-75
2023/07/22 03:29:03;;;;;;;;;;;;;;;25.72;39.34;100485.72;2394707;74;50340;-75
2023/07/22 03:32:05;;;;;;;;;;;;;;;25.72;39.34;100496.55;2361763;74;51583;-75
2023/07/22 03:35:08;;;;;;;;;;;;;;;25.71;39.35;100503.02;2361303;74;51531;-76
2023/07/22 03:38:10;;;;;;;;;;;;;;;25.73;39.31;100511.75;2394725;74;52350;-74
2023/07/22 03:41:12;;;;;;;;;;;;;;;25.72;39.34;100518.23;2361589;74;50316;-74
2023/07/22 03:44:14;;;;;;;;;;;;;;;25.72;39.32;100517.42;2335103;74;51195;-74
2023/07/22 03:47:15;;;;;;;;;;;;;;;25.71;39.32;100519.28;2361517;74;51668;-75
2023/07/22 03:50:17;;;;;;;;;;;;;;;25.72;39.31;100520.95;2362253;74;51615;-74
2023/07/22 03:53:19;;;;;;;;;;;;;;;25.72;39.33;100514.71;2394970;73;51637;-74
2023/07/22 03:56:21;;;;;;;;;;;;;;;25.71;39.35;100517.92;2388748;74;52594;-73
2023/07/22 03:59:22;;;;;;;;;;;;;;;25.70;39.34;100515.47;2361257;74;51497;-75
2023/07/22 04:02:24;;;;;;;;;;;;;;;25.71;39.33;100522.52;2394837;74;50373;-74
2023/07/22 04:05:25;;;;;;;;;;;;;;;25.71;39.32;100519.28;2361191;74;52373;-74
2023/07/22 04:08:27;;;;;;;;;;;;;;;25.72;39.32;100523.66;2388620;74;51639;-74
2023/07/22 04:11:29;;;;;;;;;;;;;;;25.72;39.34;100522.30;2394867;73;50265;-75
2023/07/22 04:14:30;;;;;;;;;;;;;;;25.70;39.34;100524.41;2361174;74;50305;-75
2023/07/22 04:17:32;;;;;;;;;;;;;;;25.70;39.35;100528.48;2394591;74;50662;-75
2023/07/22 04:20:34;;;;;;;;;;;;;;;25.71;39.35;100534.72;2395581;73;51613;-74
2023/07/22 04:23:36;;;;;;;;;;;;;;;25.71;39.35;100536.89;2361431;74;50409;-75
2023/07/22 04:26:39;;;;;;;;;;;;;;;25.70;39.36;100540.67;2394698;74;51585;-75
2023/07/22 04:29:41;;;;;;;;;;;;;;;25.70;39.36;100544.74;2394956;74;50326;-75
2023/07/22 04:32:43;;;;;;;;;;;;;;;25.71;39.35;100544.20;2334873;74;52706;-75
2023/07/22 04:35:44;;;;;;;;;;;;;;;25.70;39.36;100542.03;2395051;74;51450;-75
2023/07/22 04:38:46;;;;;;;;;;;;;;;25.70;39.37;100539.32;2361173;74;50246;-75
2023/07/22 04:41:48;;;;;;;;;;;;;;;25.70;39.35;100542.03;2361695;74;51576;-75
2023/07/22 04:44:50;;;;;;;;;;;;;;;25.71;39.35;100547.73;2394856;74;51419;-76
2023/07/22 04:47:52;;;;;;;;;;;;;;;25.71;39.36;100543.67;2361307;74;50305;-75
2023/07/22 04:50:53;;;;;;;;;;;;;;;25.71;39.35;100546.91;2394099;73;51576;-74
2023/07/22 04:53:55;;;;;;;;;;;;;;;25.69;39.37;100547.17;2394918;74;51566;-75
2023/07/22 04:56:59;;;;;;;;;;;;;;;25.71;39.38;100546.38;2388667;74;52384;-74
2023/07/22 05:00:03;;;;;;;;;;;;;;;25.68;39.48;100552.27;2395050;74;22425;-74
2023/07/22 05:03:03;;;;;;;;;;;;;;;25.73;39.47;100552.94;2361924;74;23055;-74
2023/07/22 05:06:05;;;;;;;;;;;;;;;25.78;39.42;100559.30;2394803;74;50727;-75
2023/07/22 05:09:06;;;;;;;;;;;;;;;25.84;39.36;100556.18;2388809;73;52880;-74
2023/07/22 05:12:08;;;;;;;;;;;;;;;25.94;39.27;100559.70;2394916;74;51809;-74
2023/07/22 05:15:13;;;;;;;;;;;;;;;25.98;39.16;100560.36;2394907;74;50696;-74
2023/07/22 05:18:15;;;;;;;;;;;;;;;26.07;39.08;100568.96;2394814;73;51576;-74
2023/07/22 05:21:16;;;;;;;;;;;;;;;26.18;38.91;100569.52;2335486;74;52675;-74
2023/07/22 05:24:18;;;;;;;;;;;;;;;26.26;38.83;100578.66;2361404;74;51552;-75
2023/07/22 05:27:19;;;;;;;;;;;;;;;26.24;38.87;100573.17;2361097;74;51674;-75
2023/07/22 05:30:21;;;;;;;;;;;;;;;26.24;38.84;100576.70;2361285;74;50729;-75
2023/07/22 05:33:23;;;;;;;;;;;;;;;26.21;38.88;100577.17;2361371;74;51422;-75
2023/07/22 05:36:24;;;;;;;;;;;;;;;26.14;38.95;100590.02;2361298;74;51388;-75
2023/07/22 05:39:26;;;;;;;;;;;;;;;26.27;38.82;100587.07;2361200;74;50290;-75
2023/07/22 05:42:28;;;;;;;;;;;;;;;26.23;38.83;100589.98;2394951;74;50355;-75
2023/07/22 05:45:29;;;;;;;;;;;;;;;26.14;38.97;100594.62;2388806;74;51666;-75
2023/07/22 05:48:31;;;;;;;;;;;;;;;26.11;39.00;100589.67;2358536;74;51641;-74
2023/07/22 05:51:32;;;;;;;;;;;;;;;26.06;39.07;100593.09;2362049;74;51524;-75
2023/07/22 05:54:34;;;;;;;;;;;;;;;26.08;39.05;100601.82;2394832;74;51537;-75
2023/07/22 05:57:36;;;;;;;;;;;;;;;26.10;38.98;100599.70;2334606;74;52314;-76
2023/07/22 06:00:37;;;;;;;;;;;;;;;26.06;39.05;100599.86;2361228;74;51604;-74
2023/07/22 06:03:39;;;;;;;;;;;;;;;26.04;39.06;100597.38;2395014;74;51513;-74
2023/07/22 06:06:41;;;;;;;;;;;;;;;26.06;39.05;100598.52;2394585;74;52307;-74
2023/07/22 06:09:42;;;;;;;;;;;;;;;26.12;38.98;100609.77;2388904;74;52388;-74
2023/07/22 06:12:44;;;;;;;;;;;;;;;26.12;38.96;100607.59;2355326;73;51561;-75
2023/07/22 06:15:45;;;;;;;;;;;;;;;26.24;38.82;100606.53;2395157;74;52595;-75
2023/07/22 06:18:47;;;;;;;;;;;;;;;26.24;38.88;100613.31;2361058;74;49985;-75
2023/07/22 06:21:49;;;;;;;;;;;;;;;26.31;38.84;100611.01;2361373;74;51623;-74
2023/07/22 06:24:50;;;;;;;;;;;;;;;26.32;38.92;100610.78;2361378;74;50373;-75
2023/07/22 06:27:53;;;;;;;;;;;;;;;26.37;38.89;100612.80;2361085;74;50264;-75
2023/07/22 06:30:55;;;;;;;;;;;;;;;26.41;38.83;100616.16;2395135;74;22358;-76
2023/07/22 06:34:00;;;;;;;;;;;;;;;26.44;38.86;100624.36;2388892;74;52464;-74
2023/07/22 06:37:01;;;;;;;;;;;;;;;26.44;38.86;100627.89;2361138;74;51461;-76
2023/07/22 06:40:04;;;;;;;;;;;;;;;26.38;38.95;100625.29;2394876;74;50763;-76
2023/07/22 06:43:05;;;;;;;;;;;;;;;26.30;39.00;100627.82;2362357;74;50559;-76
2023/07/22 06:46:07;;;;;;;;;;;;;;;26.42;38.70;100627.84;2388840;73;52394;-76
2023/07/22 06:49:09;;;;;;;;;;;;;;;26.31;38.92;100627.28;2361191;74;51505;-76
2023/07/22 06:52:10;;;;;;;;;;;;;;;26.33;38.87;100630.59;2394768;74;50782;-75
2023/07/22 06:55:12;;;;;;;;;;;;;;;26.35;38.86;100626.58;2394840;74;51491;-76
2023/07/22 06:58:13;;;;;;;;;;;;;;;26.40;38.79;100625.34;2388408;74;52608;-76
2023/07/22 07:01:15;;;;;;;;;;;;;;;26.37;38.82;100633.14;2395296;74;51484;-75
2023/07/22 07:04:17;;;;;;;;;;;;;;;26.37;38.89;100633.14;2361543;74;51610;-75
2023/07/22 07:07:18;;;;;;;;;;;;;;;26.29;38.95;100641.92;2361066;74;50450;-76
2023/07/22 07:10:20;;;;;;;;;;;;;;;26.26;38.92;100636.97;2389138;74;51151;-75
2023/07/22 07:13:21;;;;;;;;;;;;;;;26.26;38.85;100636.97;2362457;74;50349;-75
2023/07/22 07:16:24;;;;;;;;;;;;;;;26.25;38.88;100639.37;2394717;74;50204;-76
2023/07/22 07:19:25;;;;;;;;;;;;;;;26.29;38.81;100640.56;2394773;74;51569;-75
2023/07/22 07:22:27;;;;;;;;;;;;;;;26.26;38.81;100642.39;2361394;74;52396;-75
2023/07/22 07:25:28;;;;;;;;;;;;;;;26.25;38.83;100643.97;2361248;74;49836;-75
2023/07/22 07:28:30;;;;;;;;;;;;;;;26.21;38.92;100638.20;2394505;74;50300;-75
2023/07/22 07:31:31;;;;;;;;;;;;;;;26.25;38.83;100642.08;2394853;74;50393;-75
2023/07/22 07:34:33;;;;;;;;;;;;;;;26.20;38.95;100647.41;2394787;74;50390;-75
2023/07/22 07:37:35;;;;;;;;;;;;;;;26.23;38.86;100654.22;2361062;74;51646;-75
2023/07/22 07:40:36;;;;;;;;;;;;;;;26.25;38.78;100652.11;2394798;74;51494;-75
2023/07/22 07:43:38;;;;;;;;;;;;;;;26.24;38.79;100654.54;2396067;74;51545;-74
2023/07/22 07:46:40;;;;;;;;;;;;;;;26.27;38.76;100651.35;2361256;74;51532;-75
2023/07/22 07:49:41;;;;;;;;;;;;;;;26.25;38.79;100657.00;2388845;74;52270;-75
2023/07/22 07:52:43;;;;;;;;;;;;;;;26.22;38.77;100672.39;2394875;74;51410;-75
2023/07/22 07:55:44;;;;;;;;;;;;;;;26.23;38.79;100662.36;2394905;73;50258;-75
2023/07/22 07:58:46;;;;;;;;;;;;;;;26.25;38.71;100665.14;2388794;74;51176;-75
2023/07/22 08:01:48;;;;;;;;;;;;;;;26.21;38.76;100674.82;2361572;74;51600;-75
2023/07/22 08:04:49;;;;;;;;;;;;;;;26.20;38.78;100681.31;2361172;74;52421;-76
2023/07/22 08:07:51;;;;;;;;;;;;;;;26.26;38.60;100673.59;2394710;74;49961;-75
2023/07/22 08:11:02;;;;;;;;;;;;;;;26.21;38.63;100672.11;2389067;74;51204;-76
2023/07/22 08:14:05;;;;;;;;;;;;;;;26.24;38.55;100674.88;2390561;73;50388;-75
2023/07/22 08:17:07;;;;;;;;;;;;;;;26.22;38.59;100681.88;2397203;73;51514;-76
2023/07/22 08:20:10;;;;;;;;;;;;;;;26.22;38.58;100678.35;2391341;73;50796;-76
2023/07/22 08:23:11;;;;;;;;;;;;;;;26.23;38.59;100679.99;2363703;74;52633;-75
2023/07/22 08:26:13;;;;;;;;;;;;;;;26.19;38.63;100678.28;2391309;73;51671;-75
2023/07/22 08:29:15;;;;;;;;;;;;;;;26.20;38.58;100684.03;2391464;74;51504;-75
2023/07/22 08:32:16;;;;;;;;;;;;;;;26.22;38.54;100691.37;2391459;73;51439;-76
2023/07/22 08:35:18;;;;;;;;;;;;;;;26.20;38.54;100682.67;2391295;74;51013;-76
2023/07/22 08:38:19;;;;;;;;;;;;;;;26.20;38.50;100690.81;2391192;74;51369;-75
2023/07/22 08:41:22;;;;;;;;;;;;;;;26.23;38.44;100694.41;2384565;73;50233;-75
2023/07/22 08:44:24;;;;;;;;;;;;;;;26.22;38.46;100690.02;2394124;73;51528;-75
2023/07/22 08:47:25;;;;;;;;;;;;;;;26.16;38.56;100686.08;2390907;73;52602;-76
2023/07/22 08:50:29;;;;;;;;;;;;;;;26.17;38.55;100695.31;2397279;73;51425;-75
2023/07/22 08:53:30;;;;;;;;;;;;;;;26.20;38.50;100700.80;2397215;73;51572;-75
2023/07/22 08:56:32;;;;;;;;;;;;;;;26.20;38.48;100704.38;2397001;73;50313;-75
2023/07/22 08:59:34;;;;;;;;;;;;;;;26.18;38.50;100702.95;2391156;73;51182;-75
2023/07/22 09:02:36;;;;;;;;;;;;;;;26.17;38.49;100712.95;2391385;73;51769;-76
2023/07/22 09:05:38;;;;;;;;;;;;;;;26.19;38.47;100708.13;2397259;73;51617;-76
2023/07/22 09:08:40;;;;;;;;;;;;;;;26.18;38.49;100719.22;2397095;74;51505;-76
2023/07/22 09:11:41;;;;;;;;;;;;;;;26.15;38.53;100714.23;2380992;73;49602;-74
2023/07/22 09:14:43;;;;;;;;;;;;;;;26.15;38.50;100711.02;2396366;73;50293;-76
2023/07/22 09:17:45;;;;;;;;;;;;;;;26.19;38.43;100713.55;2397083;73;50122;-75
2023/07/22 09:20:47;;;;;;;;;;;;;;;26.20;38.42;100708.94;2397147;73;51580;-76
2023/07/22 09:23:48;;;;;;;;;;;;;;;26.20;38.39;100709.80;2363699;74;51245;-74
2023/07/22 09:26:50;;;;;;;;;;;;;;;26.19;38.38;100706.77;2397851;73;51557;-75
2023/07/22 09:29:52;;;;;;;;;;;;;;;26.15;38.42;100700.17;2397547;74;51526;-74
2023/07/22 09:32:54;;;;;;;;;;;;;;;26.15;38.42;100712.38;2397549;74;51436;-75
2023/07/22 09:35:56;;;;;;;;;;;;;;;26.17;38.39;100703.98;2391659;73;51739;-75
2023/07/22 09:39:03;;;;;;;;;;;;;;;26.17;38.38;100698.56;2391810;74;51511;-75
2023/07/22 09:42:06;;;;;;;;;;;;;;;26.17;38.36;100704.81;2380580;73;50705;-76
2023/07/22 09:45:08;;;;;;;;;;;;;;;26.17;38.38;100698.03;2390831;74;50325;-75
2023/07/22 09:48:10;;;;;;;;;;;;;;;26.17;38.36;100693.96;2363620;74;52437;-76
2023/07/22 09:51:13;;;;;;;;;;;;;;;26.17;38.33;100692.61;2391900;74;50668;-76
2023/07/22 09:54:15;;;;;;;;;;;;;;;26.18;38.29;100695.63;2397688;74;50292;-74
2023/07/22 09:57:16;;;;;;;;;;;;;;;26.19;38.26;100695.09;2397427;73;50651;-74
2023/07/22 10:00:19;;;;;;;;;;;;;;;26.18;38.24;100708.37;2391664;74;52560;-75
2023/07/22 10:03:21;;;;;;;;;;;;;;;26.16;38.19;100700.99;2391682;74;51533;-75
2023/07/22 10:06:27;;;;;;;;;;;;;;;26.16;38.13;100705.88;2397279;73;51451;-76
2023/07/22 10:09:29;;;;;;;;;;;;;;;26.15;38.15;100707.45;2397424;73;51438;-75
2023/07/22 10:12:30;;;;;;;;;;;;;;;26.16;38.12;100709.13;2385588;74;50393;-75
2023/07/22 10:15:34;;;;;;;;;;;;;;;26.15;38.05;100712.38;2396679;73;50294;-76
2023/07/22 10:18:37;;;;;;;;;;;;;;;26.15;38.02;100719.16;2397579;73;50325;-75
2023/07/22 10:21:38;;;;;;;;;;;;;;;26.16;37.93;100719.44;2397760;74;50636;-76
2023/07/22 10:24:41;;;;;;;;;;;;;;;26.13;37.91;100718.56;2391844;73;51646;-76
2023/07/22 10:27:42;;;;;;;;;;;;;;;26.13;37.89;100721.80;2397522;74;51522;-76
2023/07/22 10:30:44;;;;;;;;;;;;;;;26.15;37.80;100714.23;2397786;73;51421;-75
2023/07/22 10:33:49;;;;;;;;;;;;;;;26.16;37.80;100726.76;2397813;73;51439;-76
2023/07/22 10:36:50;;;;;;;;;;;;;;;26.14;37.82;100710.70;2391537;73;50949;-76
2023/07/22 10:39:52;;;;;;;;;;;;;;;26.15;37.76;100704.24;2397996;73;51750;-75
2023/07/22 10:42:54;;;;;;;;;;;;;;;26.13;37.83;100719.09;2379210;73;51146;-75
2023/07/22 10:45:59;;;;;;;;;;;;;;;26.12;37.82;100711.99;2397097;73;50517;-75
2023/07/22 10:49:13;;;;;;;;;;;;;;;26.13;37.79;100703.64;2391753;73;52443;-75
2023/07/22 10:52:15;;;;;;;;;;;;;;;26.12;37.81;100699.25;2391974;73;51613;-75
2023/07/22 10:55:17;;;;;;;;;;;;;;;26.13;37.78;100714.48;2397802;73;50366;-74
2023/07/22 10:58:20;;;;;;;;;;;;;;;26.08;37.77;100711.64;2397750;73;50800;-75
2023/07/22 11:01:26;;;;;;;;;;;;;;;26.09;37.75;100704.33;2364464;74;52661;-75
2023/07/22 11:04:30;;;;;;;;;;;;;;;26.10;37.73;100701.40;2398027;73;51737;-75
2023/07/22 11:07:32;;;;;;;;;;;;;;;26.07;37.71;100708.61;2398128;73;50265;-75
2023/07/22 11:10:34;;;;;;;;;;;;;;;26.06;37.69;100709.16;2398361;73;50780;-75
2023/07/22 11:13:38;;;;;;;;;;;;;;;26.05;37.71;100709.41;2378099;74;52272;-76
2023/07/22 11:16:40;;;;;;;;;;;;;;;26.06;37.69;100703.73;2362960;74;51756;-75
2023/07/22 11:19:41;;;;;;;;;;;;;;;26.09;37.68;100699.73;2396679;74;50521;-76
2023/07/22 11:22:44;;;;;;;;;;;;;;;26.10;37.63;100695.97;2396337;74;50432;-76
2023/07/22 11:25:46;;;;;;;;;;;;;;;26.11;37.65;100700.33;2336216;74;51828;-77
2023/07/22 11:28:47;;;;;;;;;;;;;;;26.07;37.71;100696.41;2395394;74;50713;-75
2023/07/22 11:31:49;;;;;;;;;;;;;;;26.07;37.69;100685.56;2395290;74;50748;-75
2023/07/22 11:34:54;;;;;;;;;;;;;;;26.08;37.68;100698.63;2395412;73;50341;-77
2023/07/22 11:37:57;;;;;;;;;;;;;;;26.08;37.67;100698.63;2389513;74;51827;-76
2023/07/22 11:40:59;;;;;;;;;;;;;;;26.07;37.71;100696.41;2391836;74;50473;-76
2023/07/22 11:44:01;;;;;;;;;;;;;;;26.06;37.67;100697.48;2395948;74;51591;-76
2023/07/22 11:47:03;;;;;;;;;;;;;;;26.05;37.67;100696.66;2394823;73;50484;-75
2023/07/22 11:50:05;;;;;;;;;;;;;;;26.04;37.66;100691.46;2389293;74;52085;-76
2023/07/22 11:53:07;;;;;;;;;;;;;;;26.05;37.63;100691.78;2396352;74;50732;-77
2023/07/22 11:56:09;;;;;;;;;;;;;;;26.05;37.58;100693.95;2396747;74;51559;-75
2023/07/22 11:59:11;;;;;;;;;;;;;;;26.05;37.59;100683.64;2396490;74;51573;-75
2023/07/22 12:02:16;;;;;;;;;;;;;;;26.04;37.63;100681.97;2390670;74;50699;-76
2023/07/22 12:05:21;;;;;;;;;;;;;;;26.04;37.59;100686.03;2362593;74;50738;-76
2023/07/22 12:08:23;;;;;;;;;;;;;;;26.05;37.53;100693.12;2397369;73;51632;-76
2023/07/22 12:11:25;;;;;;;;;;;;;;;26.03;37.53;100696.59;2396982;73;51399;-76
2023/07/22 12:14:34;;;;;;;;;;;;;;;26.03;37.54;100701.48;2390791;74;51084;-75
2023/07/22 12:17:49;;;;;;;;;;;;;;;26.04;37.54;100694.99;2362561;74;50804;-76
2023/07/22 12:20:50;;;;;;;;;;;;;;;26.03;37.50;100691.99;2396377;73;50423;-76
2023/07/22 12:23:53;;;;;;;;;;;;;;;26.05;37.49;100693.12;2396399;74;50636;-74
2023/07/22 12:26:55;;;;;;;;;;;;;;;26.04;37.44;100681.44;2391197;74;51739;-75
2023/07/22 12:29:56;;;;;;;;;;;;;;;26.05;37.43;100680.39;2362266;74;51640;-76
2023/07/22 12:32:58;;;;;;;;;;;;;;;26.04;37.43;100676.01;2362146;74;51646;-76
2023/07/22 12:36:00;;;;;;;;;;;;;;;26.04;37.42;100669.23;2395760;74;51476;-77
2023/07/22 12:39:01;;;;;;;;;;;;;;;26.07;37.39;100682.86;2395644;74;51497;-74
2023/07/22 12:42:03;;;;;;;;;;;;;;;26.05;37.45;100672.80;2335498;74;51692;-76
2023/07/22 12:45:05;;;;;;;;;;;;;;;26.06;37.38;100673.90;2390268;74;50683;-75
2023/07/22 12:48:06;;;;;;;;;;;;;;;26.05;37.41;100666.02;2395569;74;50491;-74
2023/07/22 12:51:09;;;;;;;;;;;;;;;26.05;37.39;100664.66;2389807;74;50273;-74
2023/07/22 12:54:10;;;;;;;;;;;;;;;26.04;37.42;100665.70;2362462;74;51659;-75
2023/07/22 12:57:12;;;;;;;;;;;;;;;26.05;37.43;100671.44;2361959;74;50994;-77
2023/07/22 13:00:14;;;;;;;;;;;;;;;26.05;37.39;100660.59;2395874;73;50038;-76
2023/07/22 13:03:15;;;;;;;;;;;;;;;26.05;37.41;100665.48;2395876;74;50653;-76
2023/07/22 13:06:17;;;;;;;;;;;;;;;26.06;37.39;100669.02;2389640;74;50972;-76
2023/07/22 13:09:19;;;;;;;;;;;;;;;26.05;37.41;100661.95;2395801;74;50368;-75
2023/07/22 13:12:20;;;;;;;;;;;;;;;26.06;37.40;100670.37;2393441;74;51464;-75
2023/07/22 13:15:22;;;;;;;;;;;;;;;26.04;37.43;100671.13;2390488;73;51460;-76
2023/07/22 13:18:24;;;;;;;;;;;;;;;26.04;37.44;100668.41;2335600;74;51375;-76
2023/07/22 13:21:25;;;;;;;;;;;;;;;26.02;37.46;100661.88;2396070;74;50747;-76
2023/07/22 13:24:28;;;;;;;;;;;;;;;26.03;37.47;100674.91;2362364;74;50713;-74
2023/07/22 13:27:30;;;;;;;;;;;;;;;26.01;37.49;100666.17;2362607;74;50793;-76
2023/07/22 13:30:31;;;;;;;;;;;;;;;26.01;37.48;100658.03;2335711;74;52633;-75
2023/07/22 13:33:33;;;;;;;;;;;;;;;26.02;37.42;100662.39;2362499;74;51454;-75
2023/07/22 13:36:35;;;;;;;;;;;;;;;26.04;37.40;100658.92;2396005;73;50649;-76
2023/07/22 13:39:37;;;;;;;;;;;;;;;26.02;37.42;100657.81;2396108;74;51669;-76
2023/07/22 13:42:38;;;;;;;;;;;;;;;26.05;37.41;100666.02;2390688;74;51004;-76
2023/07/22 13:45:40;;;;;;;;;;;;;;;26.05;37.39;100659.23;2390257;73;51599;-75
2023/07/22 13:48:42;;;;;;;;;;;;;;;26.04;37.38;100654.86;2362139;74;51693;-75
2023/07/22 13:51:43;;;;;;;;;;;;;;;26.05;37.41;100660.59;2395856;74;51390;-77
2023/07/22 13:54:45;;;;;;;;;;;;;;;26.02;37.44;100652.39;2389892;74;52574;-75
2023/07/22 13:57:47;;;;;;;;;;;;;;;26.02;37.45;100647.47;2395352;74;50683;-74
2023/07/22 14:00:48;;;;;;;;;;;;;;;26.03;37.42;100651.86;2362310;74;50037;-77
2023/07/22 14:03:50;;;;;;;;;;;;;;;26.03;37.42;100652.67;2362137;74;50687;-76
2023/07/22 14:06:52;;;;;;;;;;;;;;;26.03;37.45;100647.80;2389585;74;51739;-74
2023/07/22 14:09:53;;;;;;;;;;;;;;;26.04;37.42;100656.21;2361963;74;51529;-75
2023/07/22 14:12:55;;;;;;;;;;;;;;;26.03;37.38;100650.50;2358484;74;51450;-74
2023/07/22 14:15:56;;;;;;;;;;;;;;;26.00;37.44;100642.30;2364282;73;50664;-76
2023/07/22 14:18:58;;;;;;;;;;;;;;;25.99;37.50;100647.95;2364258;74;52206;-76
2023/07/22 14:22:00;;;;;;;;;;;;;;;25.98;37.48;100644.95;2392061;74;50735;-75
2023/07/22 14:25:01;;;;;;;;;;;;;;;25.98;37.46;100635.46;2391870;73;51567;-77
2023/07/22 14:28:03;;;;;;;;;;;;;;;26.00;37.39;100641.48;2391806;73;50778;-74
2023/07/22 14:31:04;;;;;;;;;;;;;;;25.98;37.39;100647.66;2364326;73;51828;-76
2023/07/22 14:34:06;;;;;;;;;;;;;;;25.97;37.41;100637.86;2398016;73;50021;-76
2023/07/22 14:37:08;;;;;;;;;;;;;;;25.97;37.35;100644.13;2397950;73;50288;-75
2023/07/22 14:40:09;;;;;;;;;;;;;;;25.97;37.38;100642.78;2397972;74;50831;-76
2023/07/22 14:43:11;;;;;;;;;;;;;;;25.99;37.33;100639.81;2363406;73;51158;-76
2023/07/22 14:46:13;;;;;;;;;;;;;;;25.97;37.34;100641.92;2389484;74;51641;-76
2023/07/22 14:49:14;;;;;;;;;;;;;;;25.96;37.37;100641.64;2395488;74;50355;-76
2023/07/22 14:52:16;;;;;;;;;;;;;;;25.98;37.35;100636.81;2395721;74;51441;-76
2023/07/22 14:55:18;;;;;;;;;;;;;;;25.96;37.36;100634.86;2335744;74;51855;-75
2023/07/22 14:58:20;;;;;;;;;;;;;;;25.96;37.37;100626.73;2362170;74;50689;-75
2023/07/22 15:01:22;;;;;;;;;;;;;;;25.94;37.38;100629.66;2362124;74;50702;-75
2023/07/22 15:04:23;;;;;;;;;;;;;;;25.95;37.36;100629.16;2395723;74;50795;-76
2023/07/22 15:07:25;;;;;;;;;;;;;;;25.93;37.37;100628.55;2335585;74;51758;-76
2023/07/22 15:10:26;;;;;;;;;;;;;;;25.93;37.38;100633.44;2362271;74;51457;-76
2023/07/22 15:13:28;;;;;;;;;;;;;;;25.92;37.40;100625.53;2396865;74;50759;-76
2023/07/22 15:16:30;;;;;;;;;;;;;;;25.93;37.39;100631.27;2395349;73;50016;-76
2023/07/22 15:19:32;;;;;;;;;;;;;;;25.92;37.38;100624.17;2335734;74;51769;-77
2023/07/22 15:22:34;;;;;;;;;;;;;;;25.91;37.38;100627.95;2362049;74;50305;-75
2023/07/22 15:25:35;;;;;;;;;;;;;;;25.90;37.38;100629.84;2395570;74;50420;-76
2023/07/22 15:28:37;;;;;;;;;;;;;;;25.92;37.34;100639.08;2395605;73;50987;-76
2023/07/22 15:31:39;;;;;;;;;;;;;;;25.88;37.38;100629.25;2389597;74;51746;-76
2023/07/22 15:34:40;;;;;;;;;;;;;;;25.86;37.43;100628.64;2395567;73;50332;-76